Aloha, Oregon
Current Conditions -  °F | °C
As of 12:53 PM on Friday 28 Nov 2014 (Local Time) from KHIO Reporting Station
Haze Haze  
Wind Chill: 54°   Ceiling: 700
Heat Index: 54°   Visibility: 3mi
Dew Point: 52°   Wind: 17mph
Humidity: 93%   Direction: 170°S
Pressure: 29.5"   Gusts: NA
Location:  45.49°N, 122.86°W
Report Text: KHIO 282053Z 17015KT 3SM BR OVC007 12/11 A2950 RMK AO2 RAE49 SLP987 P0001 60008 T01220111 56026
Loading
Personal Weather Stations






























Interactive Weather Map New forecast layout! Learn more

10-Day Weather Forecast

Advertisements
Track Severe Weather on mobile